Time;durP1;ratioP1;P1;durP2;ratioP2;P2;SDS_P1;SDS_P2;PMS_P1;PMS_P2;Temp;Humidity;BMP_temperature;BMP_pressure;BME280_temperature;BME280_humidity;BME280_pressure;Samples;Min_cycle;Max_cycle;Signal;HPM_P1;HPM_P2
2022/06/26 00:01:46;;;;;;;2.72;1.85;;;;;;;17.24;100.00;98384.44;5036505;28;20075;-68
2022/06/26 00:04:12;;;;;;;5.05;2.70;;;;;;;17.15;100.00;98375.84;5035255;28;20394;-68
2022/06/26 00:06:37;;;;;;;3.75;2.35;;;;;;;17.10;100.00;98373.03;5029823;28;20033;-69
2022/06/26 00:09:03;;;;;;;4.25;2.20;;;;;;;16.89;100.00;98352.03;5032758;28;20439;-69
2022/06/26 00:11:29;;;;;;;5.57;2.42;;;;;;;16.83;100.00;98365.63;5037944;28;20029;-69
2022/06/26 00:13:54;;;;;;;4.78;2.65;;;;;;;16.83;100.00;98382.03;5036324;28;20453;-71
2022/06/26 00:16:21;;;;;;;4.38;2.17;;;;;;;16.71;100.00;98383.19;5037355;28;20021;-70
2022/06/26 00:18:47;;;;;;;4.57;2.03;;;;;;;16.67;100.00;98393.00;5031575;28;20461;-71
2022/06/26 00:21:12;;;;;;;3.08;1.63;;;;;;;16.62;100.00;98401.94;5039689;28;20037;-70
2022/06/26 00:23:37;;;;;;;2.78;2.00;;;;;;;16.64;100.00;98391.59;5012694;28;20497;-71
2022/06/26 00:26:03;;;;;;;3.03;2.20;;;;;;;16.53;100.00;98397.97;5043189;28;20029;-71
2022/06/26 00:28:29;;;;;;;8.20;2.00;;;;;;;16.51;100.00;98398.25;5036179;28;20017;-71
2022/06/26 00:30:54;;;;;;;3.28;1.88;;;;;;;16.52;100.00;98408.09;5040149;28;20127;-71
2022/06/26 00:33:19;;;;;;;5.00;1.88;;;;;;;16.56;100.00;98408.44;5039383;28;20025;-71
2022/06/26 00:35:45;;;;;;;3.85;1.70;;;;;;;16.53;100.00;98417.94;5039834;28;20070;-70
2022/06/26 00:38:10;;;;;;;2.28;1.80;;;;;;;16.55;100.00;98418.50;5035240;28;20026;-71
2022/06/26 00:40:35;;;;;;;2.45;1.88;;;;;;;16.59;100.00;98419.66;5046358;28;20036;-69
2022/06/26 00:43:00;;;;;;;2.53;1.50;;;;;;;16.59;100.00;98435.22;5033160;28;20041;-69
2022/06/26 00:45:26;;;;;;;2.55;1.70;;;;;;;16.61;100.00;98438.50;5041543;28;20032;-69
2022/06/26 00:47:51;;;;;;;2.28;1.73;;;;;;;16.66;100.00;98446.78;5037620;28;20021;-69
2022/06/26 00:50:16;;;;;;;2.65;1.63;;;;;;;16.66;100.00;98452.25;5036018;28;20033;-69
2022/06/26 00:52:43;;;;;;;2.58;1.80;;;;;;;16.81;100.00;98492.66;5036725;28;20059;-68
2022/06/26 00:55:10;;;;;;;2.10;1.55;;;;;;;16.69;100.00;98498.19;5040123;28;20117;-69
2022/06/26 00:57:36;;;;;;;2.55;1.60;;;;;;;16.84;100.00;98495.69;5044171;28;20021;-69
2022/06/26 01:00:05;;;;;;;3.47;1.45;;;;;;;17.36;100.00;98499.94;5034952;28;20029;-69
2022/06/26 01:02:30;;;;;;;2.33;1.52;;;;;;;17.81;100.00;98498.00;5034993;28;20061;-69
2022/06/26 01:04:55;;;;;;;3.65;2.10;;;;;;;18.01;100.00;98481.78;5045621;28;20183;-69
2022/06/26 01:07:21;;;;;;;4.32;1.80;;;;;;;18.22;100.00;98485.53;5038938;28;20029;-69
2022/06/26 01:09:46;;;;;;;3.22;1.98;;;;;;;18.19;100.00;98483.31;5040805;28;20028;-70
2022/06/26 01:12:11;;;;;;;4.78;2.03;;;;;;;17.99;100.00;98497.63;5033025;28;20060;-70
2022/06/26 01:14:37;;;;;;;5.28;2.20;;;;;;;17.89;100.00;98503.00;5038526;28;20424;-69
2022/06/26 01:17:03;;;;;;;3.65;2.05;;;;;;;17.65;100.00;98481.38;5031430;28;20609;-69
2022/06/26 01:19:30;;;;;;;6.25;2.38;;;;;;;17.76;100.00;98515.16;5028663;28;20033;-69
2022/06/26 01:21:55;;;;;;;2.72;1.98;;;;;;;17.65;100.00;98516.97;5026212;28;20041;-70
2022/06/26 01:24:20;;;;;;;5.70;1.90;;;;;;;17.46;100.00;98499.25;5034758;28;20017;-72
2022/06/26 01:26:46;;;;;;;2.40;1.90;;;;;;;17.45;100.00;98514.81;5035444;28;20037;-69
2022/06/26 01:29:11;;;;;;;3.97;2.25;;;;;;;17.53;100.00;98519.84;5009730;28;20026;-69
2022/06/26 01:31:36;;;;;;;4.22;2.28;;;;;;;17.57;100.00;98492.78;5029036;28;20033;-69
2022/06/26 01:34:04;;;;;;;3.92;2.00;;;;;;;17.88;100.00;98517.78;5033114;28;20031;-70
2022/06/26 01:36:29;;;;;;;5.25;2.50;;;;;;;17.88;100.00;98490.41;5038858;28;20033;-69
2022/06/26 01:38:54;;;;;;;3.47;2.00;;;;;;;18.00;100.00;98504.78;5037167;28;20448;-69
2022/06/26 01:41:20;;;;;;;4.82;2.00;;;;;;;18.08;100.00;98495.28;5035349;28;20025;-69
2022/06/26 01:43:45;;;;;;;3.05;2.22;;;;;;;18.04;100.00;98486.75;5010909;28;20060;-69
2022/06/26 01:46:10;;;;;;;7.68;2.20;;;;;;;17.88;100.00;98495.91;5034829;28;20112;-69
2022/06/26 01:48:38;;;;;;;3.58;2.22;;;;;;;17.81;100.00;98495.25;5020216;28;20035;-70
2022/06/26 01:51:04;;;;;;;4.07;2.20;;;;;;;17.80;100.00;98482.69;5037903;28;20143;-69
2022/06/26 01:53:30;;;;;;;3.58;2.20;;;;;;;17.65;100.00;98475.91;5028985;28;20091;-69
2022/06/26 01:55:55;;;;;;;4.57;2.53;;;;;;;17.89;100.00;98471.00;5039698;28;20022;-70
2022/06/26 01:58:20;;;;;;;3.65;2.25;;;;;;;17.82;100.00;98469.56;5033198;28;20018;-69
2022/06/26 02:00:48;;;;;;;6.93;2.28;;;;;;;17.81;100.00;98462.44;5027999;28;20091;-69
2022/06/26 02:03:15;;;;;;;4.30;2.50;;;;;;;17.91;100.00;98460.59;5030430;28;20038;-69
2022/06/26 02:05:41;;;;;;;3.88;2.08;;;;;;;17.82;100.00;98478.59;5039950;28;20044;-70
2022/06/26 02:08:07;;;;;;;3.90;2.17;;;;;;;17.80;100.00;98508.13;5030731;28;20076;-70
2022/06/26 02:13:36;;;;;;;2.95;2.20;;;;;;;17.74;100.00;98490.81;5028679;28;20499;-70
2022/06/26 02:16:16;;;;;;;3.90;2.40;;;;;;;17.60;100.00;98497.75;5024900;28;20084;-70
2022/06/26 02:18:51;;;;;;;4.47;2.20;;;;;;;17.55;100.00;98492.22;5037545;28;20048;-70
2022/06/26 02:21:19;;;;;;;3.42;2.08;;;;;;;17.47;100.00;98473.53;5031714;28;20069;-70
2022/06/26 02:23:47;;;;;;;2.92;2.20;;;;;;;17.52;100.00;98490.00;5035695;28;20017;-70
2022/06/26 02:26:13;;;;;;;5.38;2.17;;;;;;;17.63;100.00;98497.25;5031252;28;20032;-69
2022/06/26 02:28:40;;;;;;;6.10;2.22;;;;;;;17.67;100.00;98501.13;5034525;28;20029;-69
2022/06/26 02:31:05;;;;;;;4.88;2.40;;;;;;;17.49;100.00;98512.41;5030753;28;20044;-70
2022/06/26 02:33:35;;;;;;;7.43;2.83;;;;;;;17.54;100.00;98501.53;5029360;28;20483;-69
2022/06/26 02:36:01;;;;;;;3.38;2.50;;;;;;;17.34;100.00;98484.88;5034352;28;20029;-70
2022/06/26 02:38:27;;;;;;;3.53;2.30;;;;;;;17.38;100.00;98500.50;5037563;28;20491;-68
2022/06/26 02:40:52;;;;;;;4.35;2.38;;;;;;;17.36;100.00;98499.13;5032068;28;20056;-69
2022/06/26 02:43:18;;;;;;;3.25;2.33;;;;;;;17.47;100.00;98498.16;5030439;28;20032;-69
2022/06/26 02:45:44;;;;;;;4.90;2.40;;;;;;;17.47;100.00;98490.75;5040304;28;20033;-69
2022/06/26 02:48:10;;;;;;;3.67;2.53;;;;;;;17.38;100.00;98489.56;5041032;28;20016;-69
2022/06/26 02:50:35;;;;;;;5.72;2.70;;;;;;;17.05;100.00;98483.13;5031593;28;20033;-72
2022/06/26 02:53:01;;;;;;;5.05;2.97;;;;;;;17.02;100.00;98519.19;5037705;28;20029;-69
2022/06/26 02:55:26;;;;;;;3.30;2.42;;;;;;;16.93;100.00;98517.16;5032564;28;20043;-69
2022/06/26 02:57:51;;;;;;;3.35;2.40;;;;;;;16.89;100.00;98524.19;5037571;28;20025;-69
2022/06/26 03:00:17;;;;;;;6.18;2.35;;;;;;;16.79;100.00;98512.03;5015946;28;20034;-70
2022/06/26 03:02:42;;;;;;;5.28;2.50;;;;;;;17.02;100.00;98515.63;5024511;28;20053;-69
2022/06/26 03:05:08;;;;;;;4.07;2.17;;;;;;;17.08;100.00;98507.25;5038982;28;20048;-69
2022/06/26 03:07:33;;;;;;;3.58;2.30;;;;;;;16.99;100.00;98480.59;5045839;28;20020;-69
2022/06/26 03:09:59;;;;;;;9.55;2.45;;;;;;;17.10;100.00;98512.44;5040440;28;20504;-69
2022/06/26 03:12:24;;;;;;;5.40;2.47;;;;;;;17.00;100.00;98498.66;5027152;28;20032;-69
2022/06/26 03:14:49;;;;;;;3.15;2.42;;;;;;;16.96;100.00;98492.88;5022509;28;20021;-69
2022/06/26 03:17:15;;;;;;;3.83;2.08;;;;;;;17.01;100.00;98503.88;5041817;28;20025;-69
2022/06/26 03:19:41;;;;;;;3.63;2.28;;;;;;;16.81;100.00;98490.75;5031229;28;20108;-69
2022/06/26 03:22:06;;;;;;;3.83;2.08;;;;;;;16.93;100.00;98503.47;5041976;28;20013;-69
2022/06/26 03:24:32;;;;;;;4.63;2.05;;;;;;;16.90;100.00;98503.97;5040407;28;20033;-68
2022/06/26 03:26:57;;;;;;;3.38;2.30;;;;;;;16.98;100.00;98495.34;5040207;28;20021;-69
2022/06/26 03:29:24;;;;;;;3.08;2.25;;;;;;;16.90;100.00;98498.50;5030685;28;20050;-69
2022/06/26 03:31:50;;;;;;;4.97;2.25;;;;;;;16.96;100.00;98495.59;5031728;28;20475;-68
2022/06/26 03:34:15;;;;;;;5.85;2.50;;;;;;;16.93;100.00;98487.09;5029983;28;20045;-69
2022/06/26 03:36:40;;;;;;;3.75;2.40;;;;;;;16.95;100.00;98493.97;5044343;28;20017;-69
2022/06/26 03:39:06;;;;;;;3.95;2.13;;;;;;;16.95;100.00;98499.41;5034863;28;20459;-69
2022/06/26 03:41:31;;;;;;;4.63;2.47;;;;;;;17.02;100.00;98493.75;5045260;28;20100;-69
2022/06/26 03:43:56;;;;;;;5.90;2.10;;;;;;;17.05;100.00;98499.53;5038902;28;20105;-69
2022/06/26 03:46:22;;;;;;;6.53;2.50;;;;;;;17.11;100.00;98511.38;5052306;28;20024;-69
2022/06/26 03:48:47;;;;;;;5.85;2.45;;;;;;;17.18;100.00;98502.97;5031555;28;20124;-70
2022/06/26 03:51:13;;;;;;;7.00;2.42;;;;;;;17.27;100.00;98498.75;5035522;28;20493;-72
2022/06/26 03:53:38;;;;;;;7.20;2.40;;;;;;;17.15;100.00;98478.91;5028282;28;20037;-68
2022/06/26 03:56:04;;;;;;;3.75;2.40;;;;;;;17.21;100.00;98492.38;5033561;28;20108;-69
2022/06/26 03:58:30;;;;;;;2.92;2.25;;;;;;;17.53;100.00;98505.34;5034649;28;20016;-70
2022/06/26 04:00:55;;;;;;;3.63;1.73;;;;;;;17.47;100.00;98489.94;5032724;28;20087;-70
2022/06/26 04:03:21;;;;;;;5.07;2.13;;;;;;;17.60;100.00;98499.66;5037773;28;20029;-70
2022/06/26 04:05:47;;;;;;;4.32;1.90;;;;;;;17.59;100.00;98504.31;5042660;28;20032;-69
2022/06/26 04:08:12;;;;;;;3.80;1.77;;;;;;;17.71;100.00;98506.88;5029003;28;20165;-69
2022/06/26 04:10:38;;;;;;;4.88;2.13;;;;;;;17.82;100.00;98510.63;5037393;28;20518;-69
2022/06/26 04:13:09;;;;;;;5.47;2.40;;;;;;;17.86;100.00;98523.50;5039501;28;20025;-70
2022/06/26 04:15:36;;;;;;;7.80;1.92;;;;;;;17.97;100.00;98527.16;5046355;28;20033;-69
2022/06/26 04:18:03;;;;;;;6.40;2.22;;;;;;;17.94;100.00;98511.28;5026050;28;20046;-69
2022/06/26 04:20:28;;;;;;;3.60;2.00;;;;;;;18.02;100.00;98529.97;5025819;28;20124;-69
2022/06/26 04:22:58;;;;;;;4.63;2.58;;;;;;;17.96;100.00;98525.53;5013438;28;20220;-69
2022/06/26 04:25:23;;;;;;;;;;;;;;;17.88;100.00;98534.22;5042190;28;20103;-70
2022/06/26 04:27:49;;;;;;;7.63;2.45;;;;;;;17.87;100.00;98527.09;5040282;28;20469;-70
2022/06/26 04:30:15;;;;;;;4.93;2.47;;;;;;;17.85;100.00;98497.25;5017525;28;20484;-69
2022/06/26 04:32:40;;;;;;;4.22;2.65;;;;;;;18.03;100.00;98515.22;5037285;28;20052;-70
2022/06/26 04:35:06;;;;;;;3.08;2.10;;;;;;;18.09;100.00;98518.81;5033952;28;20383;-69
2022/06/26 04:37:31;;;;;;;4.47;2.08;;;;;;;18.21;100.00;98526.84;5019602;28;20486;-69
2022/06/26 04:39:56;;;;;;;3.63;2.10;;;;;;;18.48;100.00;98524.91;5025928;28;20415;-69
2022/06/26 04:42:22;;;;;;;5.53;2.50;;;;;;;18.71;100.00;98528.38;5036979;28;20359;-69
2022/06/26 04:44:47;;;;;;;2.65;1.92;;;;;;;18.83;100.00;98521.63;5035808;28;20029;-69
2022/06/26 04:47:12;;;;;;;5.13;2.17;;;;;;;18.99;100.00;98516.25;5034893;28;20021;-69
2022/06/26 04:49:37;;;;;;;3.78;1.70;;;;;;;19.20;100.00;98511.69;5038568;28;20025;-69
2022/06/26 04:52:03;;;;;;;3.38;1.45;;;;;;;19.26;100.00;98516.13;5037729;28;20021;-69
2022/06/26 04:54:28;;;;;;;1.63;1.27;;;;;;;19.35;100.00;98514.50;5035936;28;20475;-69
2022/06/26 04:56:54;;;;;;;2.40;1.63;;;;;;;19.29;100.00;98520.25;5044331;28;20046;-69
2022/06/26 04:59:19;;;;;;;5.15;1.90;;;;;;;19.32;100.00;98520.53;5037109;28;20125;-69
2022/06/26 05:01:44;;;;;;;5.00;1.95;;;;;;;19.46;100.00;98510.72;5037799;28;20036;-68
2022/06/26 05:04:10;;;;;;;5.57;1.50;;;;;;;19.64;100.00;98516.81;5029904;28;20024;-69
2022/06/26 05:06:35;;;;;;;2.22;1.30;;;;;;;19.71;100.00;98514.69;5036090;28;20033;-69
2022/06/26 05:09:00;;;;;;;2.42;1.40;;;;;;;19.91;100.00;98513.88;5029341;28;20109;-69
2022/06/26 05:11:25;;;;;;;2.88;1.33;;;;;;;19.87;100.00;98493.59;5035592;28;20029;-70
2022/06/26 05:13:51;;;;;;;1.85;0.93;;;;;;;20.15;100.00;98508.75;5031824;28;20026;-69
2022/06/26 05:16:16;;;;;;;2.40;1.23;;;;;;;20.27;100.00;98514.78;5034100;28;20025;-70
2022/06/26 05:18:41;;;;;;;1.83;0.80;;;;;;;20.48;100.00;98515.59;5028875;28;20025;-69
2022/06/26 05:21:07;;;;;;;2.00;0.90;;;;;;;20.70;100.00;98518.13;5036568;28;20431;-68
2022/06/26 05:23:32;;;;;;;3.97;1.08;;;;;;;20.94;100.00;98514.78;5039203;28;20029;-69
2022/06/26 05:25:57;;;;;;;1.25;0.82;;;;;;;20.89;100.00;98495.53;5039696;28;20025;-69
2022/06/26 05:28:23;;;;;;;2.33;1.02;;;;;;;21.23;99.77;98525.97;5040006;28;20025;-69
2022/06/26 05:30:49;;;;;;;1.88;0.82;;;;;;;21.03;97.98;98540.59;5036445;28;20104;-69
2022/06/26 05:33:14;;;;;;;1.13;0.90;;;;;;;20.64;100.00;98549.44;5029450;28;20124;-69
2022/06/26 05:35:39;;;;;;;4.20;0.80;;;;;;;20.77;99.77;98551.63;5036536;28;20028;-68
2022/06/26 05:38:05;;;;;;;0.95;0.70;;;;;;;20.86;99.73;98549.16;5028138;28;20013;-68
2022/06/26 05:40:30;;;;;;;2.03;0.80;;;;;;;20.99;99.13;98548.59;5038758;28;20030;-68
2022/06/26 05:42:57;;;;;;;2.15;0.73;;;;;;;21.09;95.07;98546.91;5025203;28;20037;-68
2022/06/26 05:45:23;;;;;;;0.77;0.70;;;;;;;20.96;95.61;98551.09;5035315;28;20084;-73
2022/06/26 05:47:48;;;;;;;3.55;0.90;;;;;;;20.69;100.00;98548.63;5022108;28;20021;-73
2022/06/26 05:50:14;;;;;;;2.55;0.90;;;;;;;20.87;100.00;98571.97;5023403;28;20400;-74
2022/06/26 05:52:39;;;;;;;2.92;0.77;;;;;;;20.73;100.00;98566.22;5034245;28;20035;-73
2022/06/26 05:55:05;;;;;;;0.73;0.60;;;;;;;20.92;100.00;98556.28;5017173;28;20024;-73
2022/06/26 05:57:31;;;;;;;1.88;0.68;;;;;;;20.74;100.00;98557.69;5036274;28;20017;-72
2022/06/26 05:59:56;;;;;;;1.60;0.60;;;;;;;21.15;99.36;98563.13;5038064;28;20075;-73
2022/06/26 06:02:21;;;;;;;0.60;0.52;;;;;;;21.17;97.16;98560.94;5032264;28;20403;-74
2022/06/26 06:04:47;;;;;;;3.80;0.73;;;;;;;21.22;99.69;98568.34;5032271;28;20148;-73
2022/06/26 06:07:12;;;;;;;1.10;0.65;;;;;;;21.36;97.78;98585.09;5025701;28;20379;-73
2022/06/26 06:09:37;;;;;;;0.73;0.43;;;;;;;21.31;100.00;98585.13;5046688;28;20092;-74
2022/06/26 06:12:03;;;;;;;0.77;0.60;;;;;;;21.51;96.00;98587.00;5028217;28;20021;-73
2022/06/26 06:14:28;;;;;;;1.85;0.90;;;;;;;21.44;91.98;98573.56;5033167;28;20041;-73
2022/06/26 06:16:54;;;;;;;0.80;0.50;;;;;;;21.49;97.15;98589.22;5010897;28;20040;-74
2022/06/26 06:19:19;;;;;;;1.33;0.57;;;;;;;21.48;95.57;98582.88;5035839;28;20051;-74
2022/06/26 06:24:14;;;;;;;1.48;0.55;;;;;;;22.51;89.11;98594.25;5007261;28;20041;-68
2022/06/26 06:26:40;;;;;;;0.60;0.50;;;;;;;23.18;78.13;98586.25;4993418;28;20025;-65
2022/06/26 06:29:05;;;;;;;1.17;0.60;;;;;;;23.32;72.85;98586.41;4999403;28;20048;-65
2022/06/26 06:31:31;;;;;;;1.05;0.60;;;;;;;23.96;72.71;98567.69;4988939;28;20411;-65
2022/06/26 06:33:57;;;;;;;2.00;0.70;;;;;;;24.62;64.96;98579.75;4968726;28;20084;-62
2022/06/26 06:36:24;;;;;;;1.80;0.95;;;;;;;24.26;63.25;98567.28;4973604;28;20022;-62
2022/06/26 06:38:49;;;;;;;1.30;0.50;;;;;;;24.01;64.89;98584.22;4973354;28;20161;-64
2022/06/26 06:41:14;;;;;;;2.00;0.40;;;;;;;23.97;63.63;98580.38;4975835;28;20117;-64
2022/06/26 06:43:40;;;;;;;0.65;0.50;;;;;;;23.84;62.44;98588.31;4972437;28;20073;-64
2022/06/26 06:46:05;;;;;;;1.23;0.45;;;;;;;23.85;61.03;98600.16;4968804;28;20044;-64
2022/06/26 06:48:31;;;;;;;1.25;0.55;;;;;;;24.61;58.47;98587.22;4976275;28;20168;-63
2022/06/26 06:50:56;;;;;;;0.95;0.55;;;;;;;25.47;56.24;98584.09;4972177;28;20124;-63
2022/06/26 06:53:22;;;;;;;1.77;0.50;;;;;;;25.86;55.23;98579.16;4974738;28;20070;-63
2022/06/26 06:55:48;;;;;;;0.30;0.30;;;;;;;26.47;53.65;98583.38;4974264;28;20034;-63
2022/06/26 06:58:14;;;;;;;1.40;0.40;;;;;;;25.80;51.09;98595.06;4970903;28;20046;-63
2022/06/26 07:00:40;;;;;;;0.85;0.40;;;;;;;25.17;53.19;98590.19;4969335;28;20030;-63
2022/06/26 07:03:06;;;;;;;1.20;0.40;;;;;;;24.76;56.21;98593.63;4987199;28;20031;-63
2022/06/26 07:05:32;;;;;;;0.82;0.40;;;;;;;24.34;57.95;98596.19;4973404;28;20390;-63
2022/06/26 07:07:59;;;;;;;0.77;0.30;;;;;;;24.68;56.25;98603.44;4972174;28;20019;-64
2022/06/26 07:10:25;;;;;;;1.50;0.60;;;;;;;24.88;56.38;98605.06;4974693;28;20050;-64
2022/06/26 07:12:58;;;;;;;0.88;0.35;;;;;;;26.76;52.18;98596.84;4967784;28;20034;-64
2022/06/26 07:15:25;;;;;;;0.90;0.57;;;;;;;28.06;47.25;98582.81;4967525;28;20054;-64
2022/06/26 07:17:50;;;;;;;4.07;0.38;;;;;;;30.13;43.60;98588.34;4975234;28;20018;-65
2022/06/26 07:20:16;;;;;;;0.95;0.43;;;;;;;30.87;40.78;98588.78;4974292;28;20049;-65
2022/06/26 07:22:43;;;;;;;0.30;0.30;;;;;;;32.28;38.95;98595.16;4967336;28;20029;-66
2022/06/26 07:25:08;;;;;;;0.40;0.30;;;;;;;34.14;36.29;98602.28;4974141;28;20025;-66
2022/06/26 07:27:34;;;;;;;0.70;0.43;;;;;;;34.54;35.24;98602.00;4971920;28;20018;-66
2022/06/26 07:30:00;;;;;;;2.58;0.40;;;;;;;34.86;33.16;98599.91;4972029;28;20439;-65
2022/06/26 07:32:27;;;;;;;0.75;0.40;;;;;;;35.08;31.85;98601.19;4967070;28;20058;-65
2022/06/26 07:34:53;;;;;;;0.25;0.25;;;;;;;35.43;32.32;98614.28;4971170;28;20027;-65
2022/06/26 07:37:19;;;;;;;2.00;0.30;;;;;;;36.16;31.27;98612.34;4987899;28;20038;-65
2022/06/26 07:39:44;;;;;;;0.40;0.20;;;;;;;36.20;32.34;98609.56;4973689;28;20033;-65
2022/06/26 07:42:10;;;;;;;0.65;0.30;;;;;;;36.34;32.13;98606.97;4968329;28;20129;-65
2022/06/26 07:44:35;;;;;;;0.30;0.30;;;;;;;35.62;31.80;98604.19;4974446;28;20026;-66
2022/06/26 07:47:01;;;;;;;0.80;0.32;;;;;;;36.34;31.50;98595.72;4975509;28;20033;-66
2022/06/26 07:49:26;;;;;;;1.08;0.30;;;;;;;35.48;31.62;98599.09;4973757;28;20026;-66
2022/06/26 07:51:51;;;;;;;1.02;0.40;;;;;;;37.12;30.05;98595.09;4975582;28;20026;-67
2022/06/26 07:54:17;;;;;;;0.80;0.40;;;;;;;36.56;29.95;98596.84;4994681;28;20057;-66
2022/06/26 07:56:43;;;;;;;0.63;0.32;;;;;;;37.74;29.39;98588.09;4985306;28;20034;-67
2022/06/26 07:59:09;;;;;;;0.82;0.38;;;;;;;37.52;28.73;98599.19;4976388;28;20025;-66
2022/06/26 08:01:35;;;;;;;1.08;0.40;;;;;;;37.38;29.07;98605.47;4975222;28;20121;-66
2022/06/26 08:04:01;;;;;;;0.38;0.38;;;;;;;37.60;28.13;98595.22;4969371;28;20470;-66
2022/06/26 08:06:27;;;;;;;0.70;0.40;;;;;;;38.43;27.19;98591.03;4975797;28;20458;-66
2022/06/26 08:08:52;;;;;;;0.65;0.32;;;;;;;37.61;28.23;98594.03;4973303;28;20026;-66
2022/06/26 08:11:18;;;;;;;3.13;0.40;;;;;;;37.98;28.18;98590.31;4977538;28;20022;-66
2022/06/26 08:13:44;;;;;;;2.47;0.30;;;;;;;38.03;27.42;98589.13;4974068;28;20042;-66
2022/06/26 08:16:11;;;;;;;0.30;0.30;;;;;;;38.57;28.02;98582.63;4973768;28;20104;-66
2022/06/26 08:18:38;;;;;;;0.73;0.30;;;;;;;39.11;27.15;98587.69;4965392;28;20483;-65
2022/06/26 08:23:48;;;;;;;0.40;0.20;;;;;;;37.16;28.51;98576.22;4991759;28;20041;-66
2022/06/26 08:26:14;;;;;;;0.68;0.40;;;;;;;39.20;27.36;98576.81;4976393;28;20038;-65
2022/06/26 08:28:39;;;;;;;0.35;0.30;;;;;;;39.14;27.34;98569.91;4976132;28;20414;-65
2022/06/26 08:31:05;;;;;;;0.40;0.20;;;;;;;39.32;27.32;98562.25;4975914;28;20026;-66
2022/06/26 08:33:30;;;;;;;1.23;0.20;;;;;;;39.34;26.99;98557.03;4973981;28;20054;-65
2022/06/26 08:35:55;;;;;;;0.68;0.30;;;;;;;38.71;27.80;98575.41;4974166;28;20044;-65
2022/06/26 08:38:21;;;;;;;0.30;0.30;;;;;;;39.07;26.73;98572.75;4974881;28;20029;-65
2022/06/26 08:40:46;;;;;;;0.82;0.40;;;;;;;38.63;27.58;98580.22;4979142;28;20122;-65
2022/06/26 08:43:13;;;;;;;2.72;0.60;;;;;;;38.25;27.67;98578.78;4970830;28;20032;-65
2022/06/26 08:45:40;;;;;;;0.80;0.30;;;;;;;39.36;27.00;98580.09;4974546;28;20076;-65
2022/06/26 08:48:08;;;;;;;0.60;0.40;;;;;;;39.18;27.36;98571.53;4976941;28;20026;-65
2022/06/26 08:50:33;;;;;;;0.93;0.30;;;;;;;38.61;27.01;98573.34;4970943;28;20026;-65
2022/06/26 08:52:59;;;;;;;0.50;0.50;;;;;;;38.33;27.63;98577.59;4973632;28;20026;-65
2022/06/26 08:55:25;;;;;;;2.80;0.30;;;;;;;38.88;27.05;98574.69;4972397;28;20386;-61
2022/06/26 08:57:51;;;;;;;0.60;0.43;;;;;;;39.00;27.36;98585.63;4968253;28;20033;-61
2022/06/26 09:00:17;;;;;;;0.60;0.40;;;;;;;39.23;27.75;98581.66;4968900;28;20109;-62
2022/06/26 09:02:43;;;;;;;0.47;0.40;;;;;;;38.79;27.01;98583.53;4973609;28;20027;-61
2022/06/26 09:05:10;;;;;;;0.55;0.38;;;;;;;39.02;28.05;98579.59;4977546;28;20022;-61
2022/06/26 09:07:51;;;;;;;0.93;0.30;;;;;;;39.27;27.28;98582.47;4968142;28;20026;-61
2022/06/26 09:10:17;;;;;;;0.63;0.28;;;;;;;39.01;27.87;98586.44;4971439;28;20069;-62
2022/06/26 09:12:50;;;;;;;0.38;0.28;;;;;;;38.39;28.47;98581.69;4974504;28;20466;-62
2022/06/26 09:15:18;;;;;;;1.00;0.50;;;;;;;39.80;27.33;98580.94;4986221;28;20082;-61
2022/06/26 09:17:57;;;;;;;0.50;0.30;;;;;;;39.48;27.19;98583.75;4969547;28;20018;-62
2022/06/26 09:20:23;;;;;;;0.63;0.47;;;;;;;37.92;28.22;98584.19;4964776;28;20118;-61
2022/06/26 09:22:53;;;;;;;0.63;0.30;;;;;;;38.81;27.94;98583.13;4970542;28;20413;-62
2022/06/26 09:25:19;;;;;;;0.47;0.35;;;;;;;38.99;28.54;98586.88;4968584;28;20065;-62
2022/06/26 09:27:45;;;;;;;0.40;0.30;;;;;;;39.36;26.59;98582.94;4974997;28;20054;-61
2022/06/26 09:30:11;;;;;;;0.55;0.20;;;;;;;40.23;26.26;98581.75;4976371;28;20481;-61
2022/06/26 09:32:37;;;;;;;0.30;0.30;;;;;;;39.54;27.00;98585.78;4986024;28;20042;-62
2022/06/26 09:35:02;;;;;;;0.17;0.10;;;;;;;40.59;26.66;98587.31;4971428;28;20475;-62
2022/06/26 09:37:36;;;;;;;2.08;0.43;;;;;;;39.00;27.06;98585.63;4975312;28;20332;-62
2022/06/26 09:40:03;;;;;;;0.57;0.40;;;;;;;39.28;27.36;98592.59;4989721;28;20136;-62
2022/06/26 09:42:32;;;;;;;0.35;0.30;;;;;;;40.01;27.60;98585.78;4971372;28;20079;-62
2022/06/26 09:44:59;;;;;;;1.08;0.30;;;;;;;40.22;26.85;98585.81;4973306;28;20061;-62
2022/06/26 09:47:31;;;;;;;1.10;0.32;;;;;;;40.15;27.07;98585.78;4971803;28;20026;-62
2022/06/26 09:49:59;;;;;;;0.43;0.20;;;;;;;39.71;26.17;98578.50;4976947;28;20045;-62
2022/06/26 09:52:27;;;;;;;0.43;0.30;;;;;;;38.90;26.87;98586.41;4971262;28;20022;-62
2022/06/26 09:54:53;;;;;;;2.50;0.40;;;;;;;39.71;27.22;98584.16;4972536;28;20486;-62
2022/06/26 09:57:19;;;;;;;0.77;0.40;;;;;;;38.12;27.29;98578.28;4974002;28;20528;-62
2022/06/26 09:59:45;;;;;;;0.77;0.45;;;;;;;38.97;28.03;98580.78;4970638;28;20014;-62
2022/06/26 10:07:49;;;;;;;0.47;0.33;;;;;;;39.60;27.41;98577.69;4988339;28;20099;-62
2022/06/26 10:10:18;;;;;;;0.85;0.45;;;;;;;39.42;26.26;98575.66;4961544;28;20377;-62
2022/06/26 10:12:47;;;;;;;0.88;0.30;;;;;;;39.58;25.99;98568.78;4972954;28;20443;-62
2022/06/26 10:15:16;;;;;;;0.55;0.40;;;;;;;39.09;27.11;98570.31;4967868;28;20125;-62
2022/06/26 10:18:03;;;;;;;0.28;0.28;;;;;;;39.25;27.24;98567.94;4969441;28;20493;-62
2022/06/26 10:20:31;;;;;;;0.30;0.30;;;;;;;38.52;27.67;98565.25;4971232;28;20080;-62
2022/06/26 10:22:56;;;;;;;0.55;0.38;;;;;;;40.01;26.33;98569.63;4966245;28;20188;-61
2022/06/26 10:25:27;;;;;;;0.88;0.50;;;;;;;38.38;26.96;98565.94;4969259;28;20025;-61
2022/06/26 10:27:53;;;;;;;0.60;0.30;;;;;;;38.32;28.25;98561.88;4967646;28;20064;-61
2022/06/26 10:30:23;;;;;;;0.30;0.30;;;;;;;38.42;27.14;98566.78;4968800;28;20034;-62
2022/06/26 10:33:08;;;;;;;0.43;0.28;;;;;;;39.03;26.90;98571.91;4967058;28;20418;-61
2022/06/26 10:35:46;;;;;;;0.60;0.32;;;;;;;38.58;27.13;98566.47;4967861;28;20033;-62
2022/06/26 10:38:26;;;;;;;1.70;0.45;;;;;;;38.68;27.10;98562.88;4966025;28;20110;-61
2022/06/26 10:44:02;;;;;;;3.25;0.38;;;;;;;37.21;29.01;98558.94;4985701;28;20445;-62
2022/06/26 10:46:44;;;;;;;0.73;0.35;;;;;;;37.77;28.61;98550.59;4970351;28;20034;-61
2022/06/26 10:49:10;;;;;;;0.70;0.43;;;;;;;38.71;29.15;98555.63;4986942;28;20037;-62
2022/06/26 10:51:40;;;;;;;0.40;0.30;;;;;;;39.01;28.20;98544.84;4972554;28;20026;-62
2022/06/26 10:54:29;;;;;;;1.10;0.40;;;;;;;38.86;27.58;98551.63;4969580;28;20026;-62
2022/06/26 10:57:19;;;;;;;1.55;0.38;;;;;;;38.92;28.19;98543.59;4987604;28;20030;-62
2022/06/26 10:59:45;;;;;;;0.47;0.40;;;;;;;39.45;27.12;98549.34;4966643;28;20049;-62
2022/06/26 11:02:13;;;;;;;1.30;0.40;;;;;;;40.04;25.86;98534.78;4968938;28;20488;-62
2022/06/26 11:04:49;;;;;;;0.43;0.40;;;;;;;38.79;27.14;98534.63;4989369;28;20066;-62
2022/06/26 11:07:16;;;;;;;0.95;0.30;;;;;;;39.13;27.11;98535.16;4982123;28;20030;-62
2022/06/26 11:09:42;;;;;;;0.30;0.30;;;;;;;39.31;28.20;98537.22;4968058;28;20034;-62
2022/06/26 11:12:08;;;;;;;1.20;0.30;;;;;;;40.08;27.14;98531.94;4970386;28;20126;-62
2022/06/26 11:14:34;;;;;;;1.48;0.40;;;;;;;40.65;26.22;98539.50;4971659;28;20172;-62
2022/06/26 11:16:59;;;;;;;0.65;0.40;;;;;;;39.16;26.42;98542.84;4971903;28;20783;-62
2022/06/26 11:19:28;;;;;;;0.77;0.30;;;;;;;40.08;26.78;98531.94;4970193;28;20026;-62
2022/06/26 11:22:08;;;;;;;0.50;0.32;;;;;;;36.62;29.82;98524.03;4991808;28;20578;-62
2022/06/26 11:24:35;;;;;;;0.60;0.28;;;;;;;39.53;27.82;98529.56;4975817;28;20478;-61
2022/06/26 11:27:01;;;;;;;0.70;0.38;;;;;;;39.75;27.64;98524.66;4974193;28;20486;-62
2022/06/26 11:29:27;;;;;;;1.38;0.50;;;;;;;38.78;28.32;98522.53;4970724;28;20022;-62
2022/06/26 11:31:53;;;;;;;1.10;0.47;;;;;;;37.75;28.25;98514.25;4971344;28;20026;-62
2022/06/26 11:34:20;;;;;;;1.13;0.30;;;;;;;37.23;30.59;98502.13;4974685;28;20026;-61
2022/06/26 11:36:58;;;;;;;1.70;0.35;;;;;;;37.11;30.36;98516.53;4976276;28;20509;-61
2022/06/26 11:39:44;;;;;;;0.82;0.40;;;;;;;36.77;31.04;98513.72;4969565;28;20022;-61
2022/06/26 11:42:29;;;;;;;0.57;0.40;;;;;;;36.61;30.78;98514.75;4971891;28;20065;-62
2022/06/26 11:44:55;;;;;;;0.75;0.70;;;;;;;35.70;32.19;98513.06;4990071;28;20623;-61